Besuchen Sie unsere anderen Wetter Stationen:

Template documentation
and downloads

And another site



METAR-Meldungen aus der Umgebung

   
EBAW - Antwerp
Aktualisierung: 16-10-2018 10:50
Klar  
Klar  
   Wind: SSO 5.6 km/h
Wind: SSO 5.6 km/h
Temperatur: 16°C
Taupunkt: 12°C
Luftfeuchte: 77%
Luftdruck: 1018 hPa
Sichtbarkeit: More than 10 km
Bewölkung: Klar
EBAW 160850Z 16003KT CAVOK 16/12 Q1018 NOSIG
EBLG - Liège
Aktualisierung: 16-10-2018 10:50
Klar  
Klar  
   Wind: Süden 7.4 km/h
Wind: Süden 7.4 km/h
Temperatur: 16°C
Taupunkt: 10°C
Luftfeuchte: 68%
Luftdruck: 1019 hPa
Sichtbarkeit: More than 10 km
Bewölkung: Klar
EBLG 160850Z 17004KT CAVOK 16/10 Q1019 NOSIG
EBCV - Mons/Bergen
Aktualisierung: 16-10-2018 10:55
Klar  
Klar  
   Wind: variiert 1.9 km/h
Wind: variiert 1.9 km/h
Temperatur: 19°C
Taupunkt: 11°C
Luftfeuchte: 60%
Luftdruck: 1018 hPa
Bewölkt: Klar
Sichtbarkeit: More than 10 km
Bewölkung: Klar
EBCV 160855Z AUTO VRB01KT 9999 NCD 19/11 Q1018 BLU
EHBK - Maastricht
Aktualisierung: 16-10-2018 10:55
Teilweise bewölkt  
Teilweise bewölkt  
   Wind: Süden 5.6 km/h<br />Gust to 5.6 km/h
Wind: Süden 5.6 km/h
Gust to 5.6 km/h
Temperatur: 17°C
Taupunkt: 11°C
Luftfeuchte: 68%
Luftdruck: 1018 hPa
Bewölkt: Teilweise bewölkt
Sichtbarkeit: More than 10 km
Bewölkung: Teilweise bewölkt
EHBK 160855Z AUTO 17003G15KT 070V240 9999 NSC 17/11 Q1018 NOSIG
ELLX - Luxemburg
Aktualisierung: 16-10-2018 10:50
Klar  
Klar  
   Wind: ONO 14.8 km/h
Wind: ONO 14.8 km/h
Temperatur: 18°C
Taupunkt: 8°C
Luftfeuchte: 52%
Luftdruck: 1019 hPa
Sichtbarkeit: More than 10 km
Bewölkung: Klar
ELLX 160850Z 06008KT CAVOK 18/08 Q1019 NOSIG
EBOS - Oostende
Aktualisierung: 16-10-2018 10:50
Klar  
Klar  
   Wind: Süden 11.1 km/h
Wind: Süden 11.1 km/h
Temperatur: 17°C
Taupunkt: 11°C
Luftfeuchte: 68%
Luftdruck: 1017 hPa
Sichtbarkeit: More than 10 km
Bewölkung: Klar
EBOS 160850Z 18006KT CAVOK 17/11 Q1017 NOSIG

Script entwickelt von  Saratoga-weather.org Angepasst für das Template von  Weerstation Leuven

Sie finden unser Wetter-Infos auch auf:

netzwerkwettercom

European Weather Network

WeatherCloud

Weather Underground

AWEKAS

Citizen Weather Observer Program (CWOP)

HAMweather, WeatherForYou, PWS Weather

Von uns verwendete Ausrüstung:

Wetterstation
Davis VP2 Aktiv Plus 6163EU

Wetterprogramm
Weather Display

Davis VP2 Aktiv Plus  6163EU

Weather Display